sensor_id;sensor_type;location;lat;lon;timestamp;P1;durP1;ratioP1;P2;durP2;ratioP2
14748;SDS011;7466;53.574;9.976;2024-03-02T00:00:53;24.33;;;18.10;;
14748;SDS011;7466;53.574;9.976;2024-03-02T00:03:19;22.50;;;17.23;;
14748;SDS011;7466;53.574;9.976;2024-03-02T00:05:49;25.03;;;17.43;;
14748;SDS011;7466;53.574;9.976;2024-03-02T00:08:20;22.60;;;17.63;;
14748;SDS011;7466;53.574;9.976;2024-03-02T00:10:50;23.17;;;17.97;;
14748;SDS011;7466;53.574;9.976;2024-03-02T00:13:24;20.80;;;17.37;;
14748;SDS011;7466;53.574;9.976;2024-03-02T00:15:52;22.67;;;17.27;;
14748;SDS011;7466;53.574;9.976;2024-03-02T00:18:20;24.17;;;18.27;;
14748;SDS011;7466;53.574;9.976;2024-03-02T00:20:52;21.80;;;18.07;;
14748;SDS011;7466;53.574;9.976;2024-03-02T00:23:21;26.13;;;17.10;;
14748;SDS011;7466;53.574;9.976;2024-03-02T00:25:48;23.17;;;17.53;;
14748;SDS011;7466;53.574;9.976;2024-03-02T00:28:19;24.90;;;17.03;;
14748;SDS011;7466;53.574;9.976;2024-03-02T00:30:55;24.83;;;17.90;;
14748;SDS011;7466;53.574;9.976;2024-03-02T00:33:30;23.27;;;17.03;;
14748;SDS011;7466;53.574;9.976;2024-03-02T00:36:11;24.10;;;18.23;;
14748;SDS011;7466;53.574;9.976;2024-03-02T00:38:42;22.23;;;17.30;;
14748;SDS011;7466;53.574;9.976;2024-03-02T00:41:18;25.57;;;17.83;;
14748;SDS011;7466;53.574;9.976;2024-03-02T00:43:50;25.23;;;18.73;;
14748;SDS011;7466;53.574;9.976;2024-03-02T00:46:24;27.13;;;19.53;;
14748;SDS011;7466;53.574;9.976;2024-03-02T00:48:53;25.07;;;18.57;;
14748;SDS011;7466;53.574;9.976;2024-03-02T00:51:28;28.93;;;20.27;;
14748;SDS011;7466;53.574;9.976;2024-03-02T00:53:58;30.97;;;20.23;;
14748;SDS011;7466;53.574;9.976;2024-03-02T00:56:29;30.80;;;20.03;;
14748;SDS011;7466;53.574;9.976;2024-03-02T00:58:56;31.37;;;19.83;;
14748;SDS011;7466;53.574;9.976;2024-03-02T01:01:24;26.33;;;20.17;;
14748;SDS011;7466;53.574;9.976;2024-03-02T01:03:51;30.20;;;20.30;;
14748;SDS011;7466;53.574;9.976;2024-03-02T01:06:26;29.47;;;21.10;;
14748;SDS011;7466;53.574;9.976;2024-03-02T01:08:52;29.40;;;21.30;;
14748;SDS011;7466;53.574;9.976;2024-03-02T01:11:21;35.73;;;23.20;;
14748;SDS011;7466;53.574;9.976;2024-03-02T01:13:48;33.53;;;23.00;;
14748;SDS011;7466;53.574;9.976;2024-03-02T01:16:15;36.33;;;23.70;;
14748;SDS011;7466;53.574;9.976;2024-03-02T01:18:52;37.47;;;24.63;;
14748;SDS011;7466;53.574;9.976;2024-03-02T01:21:19;41.20;;;25.73;;
14748;SDS011;7466;53.574;9.976;2024-03-02T01:23:46;38.83;;;25.63;;
14748;SDS011;7466;53.574;9.976;2024-03-02T01:26:13;41.10;;;26.70;;
14748;SDS011;7466;53.574;9.976;2024-03-02T01:28:39;43.03;;;26.80;;
14748;SDS011;7466;53.574;9.976;2024-03-02T01:31:06;43.70;;;27.13;;
14748;SDS011;7466;53.574;9.976;2024-03-02T01:33:33;44.47;;;28.67;;
14748;SDS011;7466;53.574;9.976;2024-03-02T01:36:01;44.60;;;26.27;;
14748;SDS011;7466;53.574;9.976;2024-03-02T01:38:28;45.37;;;27.97;;
14748;SDS011;7466;53.574;9.976;2024-03-02T01:40:55;46.30;;;28.17;;
14748;SDS011;7466;53.574;9.976;2024-03-02T01:43:22;45.17;;;27.80;;
14748;SDS011;7466;53.574;9.976;2024-03-02T01:45:50;46.93;;;28.57;;
14748;SDS011;7466;53.574;9.976;2024-03-02T01:48:26;45.00;;;28.80;;
14748;SDS011;7466;53.574;9.976;2024-03-02T01:50:53;49.17;;;29.97;;
14748;SDS011;7466;53.574;9.976;2024-03-02T01:53:21;50.53;;;29.97;;
14748;SDS011;7466;53.574;9.976;2024-03-02T01:55:48;45.80;;;29.57;;
14748;SDS011;7466;53.574;9.976;2024-03-02T01:58:15;46.97;;;30.10;;
14748;SDS011;7466;53.574;9.976;2024-03-02T02:00:42;48.87;;;29.60;;
14748;SDS011;7466;53.574;9.976;2024-03-02T02:03:10;50.63;;;30.87;;
14748;SDS011;7466;53.574;9.976;2024-03-02T02:05:36;49.30;;;29.80;;
14748;SDS011;7466;53.574;9.976;2024-03-02T02:08:06;45.27;;;29.43;;
14748;SDS011;7466;53.574;9.976;2024-03-02T02:10:36;57.10;;;32.23;;
14748;SDS011;7466;53.574;9.976;2024-03-02T02:13:05;50.63;;;31.50;;
14748;SDS011;7466;53.574;9.976;2024-03-02T02:15:33;52.57;;;31.90;;
14748;SDS011;7466;53.574;9.976;2024-03-02T02:18:01;55.30;;;32.03;;
14748;SDS011;7466;53.574;9.976;2024-03-02T02:20:29;54.63;;;32.50;;
14748;SDS011;7466;53.574;9.976;2024-03-02T02:22:59;53.20;;;32.57;;
14748;SDS011;7466;53.574;9.976;2024-03-02T02:25:26;55.03;;;32.57;;
14748;SDS011;7466;53.574;9.976;2024-03-02T02:28:00;53.23;;;31.63;;
14748;SDS011;7466;53.574;9.976;2024-03-02T02:30:28;51.77;;;32.30;;
14748;SDS011;7466;53.574;9.976;2024-03-02T02:32:56;58.63;;;33.30;;
14748;SDS011;7466;53.574;9.976;2024-03-02T02:35:23;53.70;;;31.63;;
14748;SDS011;7466;53.574;9.976;2024-03-02T02:37:50;58.33;;;31.70;;
14748;SDS011;7466;53.574;9.976;2024-03-02T02:40:22;54.13;;;33.07;;
14748;SDS011;7466;53.574;9.976;2024-03-02T02:42:49;57.43;;;32.87;;
14748;SDS011;7466;53.574;9.976;2024-03-02T02:45:17;50.03;;;31.73;;
14748;SDS011;7466;53.574;9.976;2024-03-02T02:47:44;53.57;;;31.53;;
14748;SDS011;7466;53.574;9.976;2024-03-02T02:50:11;54.20;;;31.27;;
14748;SDS011;7466;53.574;9.976;2024-03-02T02:52:39;52.63;;;31.87;;
14748;SDS011;7466;53.574;9.976;2024-03-02T02:55:07;49.73;;;30.43;;
14748;SDS011;7466;53.574;9.976;2024-03-02T02:57:36;53.50;;;30.87;;
14748;SDS011;7466;53.574;9.976;2024-03-02T03:00:05;52.60;;;30.60;;
14748;SDS011;7466;53.574;9.976;2024-03-02T03:02:36;51.87;;;30.97;;
14748;SDS011;7466;53.574;9.976;2024-03-02T03:05:04;51.80;;;31.97;;
14748;SDS011;7466;53.574;9.976;2024-03-02T03:07:32;49.93;;;31.60;;
14748;SDS011;7466;53.574;9.976;2024-03-02T03:09:59;50.73;;;31.30;;
14748;SDS011;7466;53.574;9.976;2024-03-02T03:12:26;52.50;;;31.37;;
14748;SDS011;7466;53.574;9.976;2024-03-02T03:14:54;48.87;;;29.20;;
14748;SDS011;7466;53.574;9.976;2024-03-02T03:17:21;46.50;;;30.10;;
14748;SDS011;7466;53.574;9.976;2024-03-02T03:19:48;52.57;;;31.57;;
14748;SDS011;7466;53.574;9.976;2024-03-02T03:22:14;46.97;;;29.33;;
14748;SDS011;7466;53.574;9.976;2024-03-02T03:24:41;48.57;;;30.67;;
14748;SDS011;7466;53.574;9.976;2024-03-02T03:27:10;50.97;;;31.50;;
14748;SDS011;7466;53.574;9.976;2024-03-02T03:29:37;51.37;;;31.40;;
14748;SDS011;7466;53.574;9.976;2024-03-02T03:32:06;48.93;;;30.90;;
14748;SDS011;7466;53.574;9.976;2024-03-02T03:34:33;51.73;;;31.73;;
14748;SDS011;7466;53.574;9.976;2024-03-02T03:37:00;46.27;;;30.07;;
14748;SDS011;7466;53.574;9.976;2024-03-02T03:39:28;46.67;;;29.30;;
14748;SDS011;7466;53.574;9.976;2024-03-02T03:41:55;48.43;;;30.50;;
14748;SDS011;7466;53.574;9.976;2024-03-02T03:44:22;50.50;;;30.50;;
14748;SDS011;7466;53.574;9.976;2024-03-02T03:46:49;44.83;;;29.40;;
14748;SDS011;7466;53.574;9.976;2024-03-02T03:49:17;47.07;;;29.80;;
14748;SDS011;7466;53.574;9.976;2024-03-02T03:51:44;49.90;;;30.97;;
14748;SDS011;7466;53.574;9.976;2024-03-02T03:54:10;47.13;;;30.03;;
14748;SDS011;7466;53.574;9.976;2024-03-02T03:56:39;49.33;;;31.87;;
14748;SDS011;7466;53.574;9.976;2024-03-02T03:59:06;48.93;;;31.03;;
14748;SDS011;7466;53.574;9.976;2024-03-02T04:01:33;51.27;;;30.60;;
14748;SDS011;7466;53.574;9.976;2024-03-02T04:04:00;46.87;;;29.67;;
14748;SDS011;7466;53.574;9.976;2024-03-02T04:06:29;48.97;;;29.87;;
14748;SDS011;7466;53.574;9.976;2024-03-02T04:08:57;50.00;;;31.00;;
14748;SDS011;7466;53.574;9.976;2024-03-02T04:11:23;48.80;;;30.40;;
14748;SDS011;7466;53.574;9.976;2024-03-02T04:13:50;43.83;;;28.57;;
14748;SDS011;7466;53.574;9.976;2024-03-02T04:16:17;45.57;;;28.87;;
14748;SDS011;7466;53.574;9.976;2024-03-02T04:18:44;47.30;;;29.53;;
14748;SDS011;7466;53.574;9.976;2024-03-02T04:21:10;47.77;;;29.63;;
14748;SDS011;7466;53.574;9.976;2024-03-02T04:23:40;48.50;;;30.00;;
14748;SDS011;7466;53.574;9.976;2024-03-02T04:26:07;42.63;;;28.43;;
14748;SDS011;7466;53.574;9.976;2024-03-02T04:28:34;45.43;;;29.17;;
14748;SDS011;7466;53.574;9.976;2024-03-02T04:31:01;44.50;;;28.23;;
14748;SDS011;7466;53.574;9.976;2024-03-02T04:33:27;47.43;;;29.47;;
14748;SDS011;7466;53.574;9.976;2024-03-02T04:35:54;46.70;;;29.47;;
14748;SDS011;7466;53.574;9.976;2024-03-02T04:38:21;45.93;;;28.83;;
14748;SDS011;7466;53.574;9.976;2024-03-02T04:40:49;47.77;;;29.33;;
14748;SDS011;7466;53.574;9.976;2024-03-02T04:43:16;47.10;;;28.83;;
14748;SDS011;7466;53.574;9.976;2024-03-02T04:45:44;44.27;;;28.77;;
14748;SDS011;7466;53.574;9.976;2024-03-02T04:48:11;45.90;;;28.73;;
14748;SDS011;7466;53.574;9.976;2024-03-02T04:50:38;44.77;;;27.13;;
14748;SDS011;7466;53.574;9.976;2024-03-02T04:53:04;42.57;;;28.30;;
14748;SDS011;7466;53.574;9.976;2024-03-02T04:55:32;40.80;;;27.97;;
14748;SDS011;7466;53.574;9.976;2024-03-02T04:58:30;44.93;;;29.20;;
14748;SDS011;7466;53.574;9.976;2024-03-02T05:00:56;44.77;;;28.37;;
14748;SDS011;7466;53.574;9.976;2024-03-02T05:03:23;42.53;;;27.50;;
14748;SDS011;7466;53.574;9.976;2024-03-02T05:05:53;43.67;;;27.50;;
14748;SDS011;7466;53.574;9.976;2024-03-02T05:08:21;44.97;;;28.23;;
14748;SDS011;7466;53.574;9.976;2024-03-02T05:10:47;46.97;;;29.23;;
14748;SDS011;7466;53.574;9.976;2024-03-02T05:13:14;45.87;;;29.27;;
14748;SDS011;7466;53.574;9.976;2024-03-02T05:15:44;46.90;;;28.83;;
14748;SDS011;7466;53.574;9.976;2024-03-02T05:18:11;48.07;;;27.87;;
14748;SDS011;7466;53.574;9.976;2024-03-02T05:20:38;44.30;;;27.97;;
14748;SDS011;7466;53.574;9.976;2024-03-02T05:23:05;45.27;;;28.93;;
14748;SDS011;7466;53.574;9.976;2024-03-02T05:25:31;45.73;;;28.20;;
14748;SDS011;7466;53.574;9.976;2024-03-02T05:28:00;49.10;;;27.73;;
14748;SDS011;7466;53.574;9.976;2024-03-02T05:30:30;43.17;;;28.57;;
14748;SDS011;7466;53.574;9.976;2024-03-02T05:33:00;42.90;;;27.77;;
14748;SDS011;7466;53.574;9.976;2024-03-02T05:35:26;41.53;;;26.50;;
14748;SDS011;7466;53.574;9.976;2024-03-02T05:37:53;39.83;;;26.90;;
14748;SDS011;7466;53.574;9.976;2024-03-02T05:40:20;39.53;;;26.53;;
14748;SDS011;7466;53.574;9.976;2024-03-02T05:42:46;40.33;;;27.33;;
14748;SDS011;7466;53.574;9.976;2024-03-02T05:45:13;41.03;;;27.13;;
14748;SDS011;7466;53.574;9.976;2024-03-02T05:47:41;40.50;;;26.97;;
14748;SDS011;7466;53.574;9.976;2024-03-02T05:50:09;42.60;;;27.10;;
14748;SDS011;7466;53.574;9.976;2024-03-02T05:52:36;41.63;;;26.73;;
14748;SDS011;7466;53.574;9.976;2024-03-02T05:55:04;36.60;;;25.13;;
14748;SDS011;7466;53.574;9.976;2024-03-02T05:57:31;41.07;;;27.33;;
14748;SDS011;7466;53.574;9.976;2024-03-02T06:00:14;38.87;;;26.47;;
14748;SDS011;7466;53.574;9.976;2024-03-02T06:02:42;41.17;;;26.87;;
14748;SDS011;7466;53.574;9.976;2024-03-02T06:05:13;41.60;;;28.17;;
14748;SDS011;7466;53.574;9.976;2024-03-02T06:07:40;42.73;;;26.73;;
14748;SDS011;7466;53.574;9.976;2024-03-02T06:10:07;40.67;;;26.90;;
14748;SDS011;7466;53.574;9.976;2024-03-02T06:12:34;41.77;;;27.30;;
14748;SDS011;7466;53.574;9.976;2024-03-02T06:15:06;43.33;;;26.60;;
14748;SDS011;7466;53.574;9.976;2024-03-02T06:17:34;42.33;;;26.03;;
14748;SDS011;7466;53.574;9.976;2024-03-02T06:20:01;42.13;;;26.73;;
14748;SDS011;7466;53.574;9.976;2024-03-02T06:22:30;43.83;;;27.23;;
14748;SDS011;7466;53.574;9.976;2024-03-02T06:24:57;40.07;;;26.97;;
14748;SDS011;7466;53.574;9.976;2024-03-02T06:27:23;39.43;;;27.20;;
14748;SDS011;7466;53.574;9.976;2024-03-02T06:29:50;41.97;;;27.03;;
14748;SDS011;7466;53.574;9.976;2024-03-02T06:32:17;42.80;;;27.33;;
14748;SDS011;7466;53.574;9.976;2024-03-02T06:34:44;39.23;;;26.30;;
14748;SDS011;7466;53.574;9.976;2024-03-02T06:37:11;43.23;;;25.93;;
14748;SDS011;7466;53.574;9.976;2024-03-02T06:39:39;41.73;;;26.57;;
14748;SDS011;7466;53.574;9.976;2024-03-02T06:42:06;41.50;;;26.33;;
14748;SDS011;7466;53.574;9.976;2024-03-02T06:44:33;43.83;;;27.97;;
14748;SDS011;7466;53.574;9.976;2024-03-02T06:47:00;41.90;;;25.90;;
14748;SDS011;7466;53.574;9.976;2024-03-02T06:49:27;39.67;;;26.60;;
14748;SDS011;7466;53.574;9.976;2024-03-02T06:51:55;40.20;;;26.43;;
14748;SDS011;7466;53.574;9.976;2024-03-02T06:54:22;43.93;;;27.17;;
14748;SDS011;7466;53.574;9.976;2024-03-02T06:56:50;41.10;;;26.63;;
14748;SDS011;7466;53.574;9.976;2024-03-02T06:59:19;40.53;;;25.83;;
14748;SDS011;7466;53.574;9.976;2024-03-02T07:01:46;38.00;;;25.60;;
14748;SDS011;7466;53.574;9.976;2024-03-02T07:04:13;42.90;;;26.40;;
14748;SDS011;7466;53.574;9.976;2024-03-02T07:06:40;40.03;;;25.27;;
14748;SDS011;7466;53.574;9.976;2024-03-02T07:09:06;37.27;;;26.40;;
14748;SDS011;7466;53.574;9.976;2024-03-02T07:11:36;37.17;;;24.80;;
14748;SDS011;7466;53.574;9.976;2024-03-02T07:14:04;38.10;;;24.47;;
14748;SDS011;7466;53.574;9.976;2024-03-02T07:16:31;34.17;;;23.83;;
14748;SDS011;7466;53.574;9.976;2024-03-02T07:18:59;38.00;;;24.53;;
14748;SDS011;7466;53.574;9.976;2024-03-02T07:21:26;35.83;;;24.97;;
14748;SDS011;7466;53.574;9.976;2024-03-02T07:23:56;39.27;;;24.53;;
14748;SDS011;7466;53.574;9.976;2024-03-02T07:26:23;36.63;;;24.27;;
14748;SDS011;7466;53.574;9.976;2024-03-02T07:28:50;35.43;;;22.73;;
14748;SDS011;7466;53.574;9.976;2024-03-02T07:31:18;36.77;;;23.57;;
14748;SDS011;7466;53.574;9.976;2024-03-02T07:33:45;34.17;;;24.03;;
14748;SDS011;7466;53.574;9.976;2024-03-02T07:36:12;32.70;;;23.17;;
14748;SDS011;7466;53.574;9.976;2024-03-02T07:38:40;39.63;;;23.60;;
14748;SDS011;7466;53.574;9.976;2024-03-02T07:41:09;38.13;;;24.80;;
14748;SDS011;7466;53.574;9.976;2024-03-02T07:43:38;40.23;;;24.93;;
14748;SDS011;7466;53.574;9.976;2024-03-02T07:46:11;37.23;;;24.17;;
14748;SDS011;7466;53.574;9.976;2024-03-02T07:48:39;34.67;;;23.97;;
14748;SDS011;7466;53.574;9.976;2024-03-02T07:51:08;37.87;;;23.73;;
14748;SDS011;7466;53.574;9.976;2024-03-02T07:53:37;34.27;;;24.13;;
14748;SDS011;7466;53.574;9.976;2024-03-02T07:56:04;37.97;;;24.40;;
14748;SDS011;7466;53.574;9.976;2024-03-02T07:58:31;37.43;;;23.93;;
14748;SDS011;7466;53.574;9.976;2024-03-02T08:00:58;36.80;;;23.67;;
14748;SDS011;7466;53.574;9.976;2024-03-02T08:03:26;35.00;;;24.30;;
14748;SDS011;7466;53.574;9.976;2024-03-02T08:05:54;38.83;;;24.17;;
14748;SDS011;7466;53.574;9.976;2024-03-02T08:08:21;32.50;;;23.33;;
14748;SDS011;7466;53.574;9.976;2024-03-02T08:10:48;35.77;;;23.87;;
14748;SDS011;7466;53.574;9.976;2024-03-02T08:13:18;32.73;;;22.67;;
14748;SDS011;7466;53.574;9.976;2024-03-02T08:15:46;33.07;;;23.00;;
14748;SDS011;7466;53.574;9.976;2024-03-02T08:18:16;33.77;;;23.50;;
14748;SDS011;7466;53.574;9.976;2024-03-02T08:20:42;34.00;;;23.50;;
14748;SDS011;7466;53.574;9.976;2024-03-02T08:23:10;34.00;;;22.67;;
14748;SDS011;7466;53.574;9.976;2024-03-02T08:25:37;36.00;;;23.70;;
14748;SDS011;7466;53.574;9.976;2024-03-02T08:28:04;35.00;;;24.20;;
14748;SDS011;7466;53.574;9.976;2024-03-02T08:30:31;38.20;;;25.37;;
14748;SDS011;7466;53.574;9.976;2024-03-02T08:33:00;35.60;;;24.20;;
14748;SDS011;7466;53.574;9.976;2024-03-02T08:35:27;35.97;;;23.87;;
14748;SDS011;7466;53.574;9.976;2024-03-02T08:37:54;35.57;;;23.73;;
14748;SDS011;7466;53.574;9.976;2024-03-02T08:40:22;32.83;;;23.00;;
14748;SDS011;7466;53.574;9.976;2024-03-02T08:42:49;35.03;;;23.80;;
14748;SDS011;7466;53.574;9.976;2024-03-02T08:45:19;35.70;;;24.27;;
14748;SDS011;7466;53.574;9.976;2024-03-02T08:47:46;35.83;;;24.03;;
14748;SDS011;7466;53.574;9.976;2024-03-02T08:50:13;37.27;;;24.17;;
14748;SDS011;7466;53.574;9.976;2024-03-02T08:52:40;33.10;;;23.07;;
14748;SDS011;7466;53.574;9.976;2024-03-02T08:55:08;32.47;;;24.00;;
14748;SDS011;7466;53.574;9.976;2024-03-02T08:57:37;30.80;;;22.37;;
14748;SDS011;7466;53.574;9.976;2024-03-02T09:00:05;34.20;;;23.63;;
14748;SDS011;7466;53.574;9.976;2024-03-02T09:02:35;34.60;;;22.43;;
14748;SDS011;7466;53.574;9.976;2024-03-02T09:05:02;31.13;;;21.63;;
14748;SDS011;7466;53.574;9.976;2024-03-02T09:07:30;29.63;;;21.40;;
14748;SDS011;7466;53.574;9.976;2024-03-02T09:10:03;30.27;;;21.57;;
14748;SDS011;7466;53.574;9.976;2024-03-02T09:12:30;29.13;;;22.07;;
14748;SDS011;7466;53.574;9.976;2024-03-02T09:14:58;32.10;;;20.67;;
14748;SDS011;7466;53.574;9.976;2024-03-02T09:17:25;29.30;;;20.50;;
14748;SDS011;7466;53.574;9.976;2024-03-02T09:19:52;29.47;;;20.50;;
14748;SDS011;7466;53.574;9.976;2024-03-02T09:22:21;26.03;;;20.90;;
14748;SDS011;7466;53.574;9.976;2024-03-02T09:24:49;25.00;;;19.37;;
14748;SDS011;7466;53.574;9.976;2024-03-02T09:27:18;26.93;;;20.40;;
14748;SDS011;7466;53.574;9.976;2024-03-02T09:29:45;25.40;;;20.83;;
14748;SDS011;7466;53.574;9.976;2024-03-02T09:32:13;27.33;;;20.23;;
14748;SDS011;7466;53.574;9.976;2024-03-02T09:34:40;25.47;;;19.53;;
14748;SDS011;7466;53.574;9.976;2024-03-02T09:37:09;26.43;;;19.80;;
14748;SDS011;7466;53.574;9.976;2024-03-02T09:39:36;26.77;;;19.77;;
14748;SDS011;7466;53.574;9.976;2024-03-02T09:42:03;27.73;;;19.83;;
14748;SDS011;7466;53.574;9.976;2024-03-02T09:44:31;27.40;;;19.37;;
14748;SDS011;7466;53.574;9.976;2024-03-02T09:46:58;25.57;;;19.60;;
14748;SDS011;7466;53.574;9.976;2024-03-02T09:49:27;25.40;;;20.53;;
14748;SDS011;7466;53.574;9.976;2024-03-02T09:51:53;24.10;;;19.07;;
14748;SDS011;7466;53.574;9.976;2024-03-02T09:54:21;25.97;;;19.47;;
14748;SDS011;7466;53.574;9.976;2024-03-02T09:56:48;24.27;;;19.03;;
14748;SDS011;7466;53.574;9.976;2024-03-02T09:59:16;22.87;;;18.77;;
14748;SDS011;7466;53.574;9.976;2024-03-02T10:01:55;25.63;;;18.53;;
14748;SDS011;7466;53.574;9.976;2024-03-02T10:04:23;24.30;;;19.10;;
14748;SDS011;7466;53.574;9.976;2024-03-02T10:07:09;24.27;;;19.13;;
14748;SDS011;7466;53.574;9.976;2024-03-02T10:09:37;23.57;;;17.73;;
14748;SDS011;7466;53.574;9.976;2024-03-02T10:12:04;21.67;;;17.33;;
14748;SDS011;7466;53.574;9.976;2024-03-02T10:14:32;23.03;;;18.17;;
14748;SDS011;7466;53.574;9.976;2024-03-02T10:17:01;20.07;;;16.93;;
14748;SDS011;7466;53.574;9.976;2024-03-02T10:19:31;22.57;;;16.70;;
14748;SDS011;7466;53.574;9.976;2024-03-02T10:22:00;20.90;;;16.50;;
14748;SDS011;7466;53.574;9.976;2024-03-02T10:24:28;18.53;;;16.10;;
14748;SDS011;7466;53.574;9.976;2024-03-02T10:27:06;20.97;;;16.07;;
14748;SDS011;7466;53.574;9.976;2024-03-02T10:29:35;20.13;;;16.10;;
14748;SDS011;7466;53.574;9.976;2024-03-02T10:32:04;18.93;;;15.53;;
14748;SDS011;7466;53.574;9.976;2024-03-02T10:34:33;19.17;;;16.03;;
14748;SDS011;7466;53.574;9.976;2024-03-02T10:36:59;18.77;;;15.63;;
14748;SDS011;7466;53.574;9.976;2024-03-02T10:39:27;18.40;;;15.67;;
14748;SDS011;7466;53.574;9.976;2024-03-02T10:41:55;16.40;;;14.67;;
14748;SDS011;7466;53.574;9.976;2024-03-02T10:44:22;18.57;;;14.70;;
14748;SDS011;7466;53.574;9.976;2024-03-02T10:46:50;19.73;;;15.10;;
14748;SDS011;7466;53.574;9.976;2024-03-02T10:49:19;17.13;;;14.37;;
14748;SDS011;7466;53.574;9.976;2024-03-02T10:51:50;22.93;;;14.90;;
14748;SDS011;7466;53.574;9.976;2024-03-02T10:54:19;22.90;;;15.17;;
14748;SDS011;7466;53.574;9.976;2024-03-02T10:56:51;15.90;;;13.90;;
14748;SDS011;7466;53.574;9.976;2024-03-02T10:59:21;16.07;;;14.10;;
14748;SDS011;7466;53.574;9.976;2024-03-02T11:01:53;16.27;;;13.20;;
14748;SDS011;7466;53.574;9.976;2024-03-02T11:04:24;16.50;;;13.67;;
14748;SDS011;7466;53.574;9.976;2024-03-02T11:06:54;17.77;;;13.67;;
14748;SDS011;7466;53.574;9.976;2024-03-02T11:09:28;15.17;;;12.83;;
14748;SDS011;7466;53.574;9.976;2024-03-02T11:11:57;14.60;;;12.47;;
14748;SDS011;7466;53.574;9.976;2024-03-02T11:14:29;14.17;;;12.67;;
14748;SDS011;7466;53.574;9.976;2024-03-02T11:16:58;13.20;;;11.80;;
14748;SDS011;7466;53.574;9.976;2024-03-02T11:19:26;13.63;;;12.23;;
14748;SDS011;7466;53.574;9.976;2024-03-02T11:21:55;12.97;;;11.53;;
14748;SDS011;7466;53.574;9.976;2024-03-02T11:24:29;13.30;;;11.87;;
14748;SDS011;7466;53.574;9.976;2024-03-02T11:27:00;12.83;;;11.53;;
14748;SDS011;7466;53.574;9.976;2024-03-02T11:29:43;13.93;;;11.30;;
14748;SDS011;7466;53.574;9.976;2024-03-02T11:32:14;12.03;;;10.77;;
14748;SDS011;7466;53.574;9.976;2024-03-02T11:34:43;13.13;;;11.73;;
14748;SDS011;7466;53.574;9.976;2024-03-02T11:37:14;12.03;;;10.73;;
14748;SDS011;7466;53.574;9.976;2024-03-02T11:39:42;12.30;;;11.07;;
14748;SDS011;7466;53.574;9.976;2024-03-02T11:42:10;12.87;;;11.57;;
14748;SDS011;7466;53.574;9.976;2024-03-02T11:44:39;11.13;;;9.97;;
14748;SDS011;7466;53.574;9.976;2024-03-02T11:47:08;12.23;;;10.97;;
14748;SDS011;7466;53.574;9.976;2024-03-02T11:49:39;11.27;;;9.73;;
14748;SDS011;7466;53.574;9.976;2024-03-02T11:52:07;11.50;;;10.20;;
14748;SDS011;7466;53.574;9.976;2024-03-02T11:54:36;10.53;;;9.63;;
14748;SDS011;7466;53.574;9.976;2024-03-02T11:57:05;10.37;;;9.40;;
14748;SDS011;7466;53.574;9.976;2024-03-02T11:59:32;10.83;;;9.70;;
14748;SDS011;7466;53.574;9.976;2024-03-02T12:01:59;11.67;;;9.47;;
14748;SDS011;7466;53.574;9.976;2024-03-02T12:04:26;10.23;;;9.23;;
14748;SDS011;7466;53.574;9.976;2024-03-02T12:06:57;10.13;;;9.23;;
14748;SDS011;7466;53.574;9.976;2024-03-02T12:09:26;9.57;;;8.60;;
14748;SDS011;7466;53.574;9.976;2024-03-02T12:12:04;10.90;;;9.70;;
14748;SDS011;7466;53.574;9.976;2024-03-02T12:14:32;9.57;;;8.67;;
14748;SDS011;7466;53.574;9.976;2024-03-02T12:17:01;10.87;;;8.20;;
14748;SDS011;7466;53.574;9.976;2024-03-02T12:19:32;9.40;;;8.50;;
14748;SDS011;7466;53.574;9.976;2024-03-02T12:21:59;9.30;;;8.37;;
14748;SDS011;7466;53.574;9.976;2024-03-02T12:24:29;9.40;;;8.50;;
14748;SDS011;7466;53.574;9.976;2024-03-02T12:26:56;8.07;;;7.47;;
14748;SDS011;7466;53.574;9.976;2024-03-02T12:29:25;10.30;;;8.57;;
14748;SDS011;7466;53.574;9.976;2024-03-02T12:31:54;9.60;;;8.70;;
14748;SDS011;7466;53.574;9.976;2024-03-02T12:34:24;9.50;;;8.50;;
14748;SDS011;7466;53.574;9.976;2024-03-02T12:36:52;9.20;;;8.40;;
14748;SDS011;7466;53.574;9.976;2024-03-02T12:39:19;9.50;;;8.63;;
14748;SDS011;7466;53.574;9.976;2024-03-02T12:41:47;9.27;;;8.47;;
14748;SDS011;7466;53.574;9.976;2024-03-02T12:44:15;9.27;;;8.20;;
14748;SDS011;7466;53.574;9.976;2024-03-02T12:46:44;9.47;;;8.37;;
14748;SDS011;7466;53.574;9.976;2024-03-02T12:49:11;8.77;;;7.80;;
14748;SDS011;7466;53.574;9.976;2024-03-02T12:51:41;8.60;;;7.80;;
14748;SDS011;7466;53.574;9.976;2024-03-02T12:54:08;8.80;;;8.00;;
14748;SDS011;7466;53.574;9.976;2024-03-02T12:56:36;8.90;;;8.10;;
14748;SDS011;7466;53.574;9.976;2024-03-02T12:59:03;8.23;;;7.43;;
14748;SDS011;7466;53.574;9.976;2024-03-02T13:01:30;8.97;;;8.07;;
14748;SDS011;7466;53.574;9.976;2024-03-02T13:03:59;9.40;;;8.50;;
14748;SDS011;7466;53.574;9.976;2024-03-02T13:06:25;9.20;;;8.30;;
14748;SDS011;7466;53.574;9.976;2024-03-02T13:08:54;9.97;;;8.30;;
14748;SDS011;7466;53.574;9.976;2024-03-02T13:11:21;9.17;;;8.20;;
14748;SDS011;7466;53.574;9.976;2024-03-02T13:13:50;9.83;;;8.50;;
14748;SDS011;7466;53.574;9.976;2024-03-02T13:16:17;9.37;;;8.53;;
14748;SDS011;7466;53.574;9.976;2024-03-02T13:18:48;9.63;;;8.70;;
14748;SDS011;7466;53.574;9.976;2024-03-02T13:21:36;9.80;;;8.90;;
14748;SDS011;7466;53.574;9.976;2024-03-02T13:24:14;10.00;;;9.00;;
14748;SDS011;7466;53.574;9.976;2024-03-02T13:29:12;10.20;;;9.20;;
14748;SDS011;7466;53.574;9.976;2024-03-02T13:31:39;15.13;;;9.60;;
14748;SDS011;7466;53.574;9.976;2024-03-02T13:34:06;10.47;;;9.23;;
14748;SDS011;7466;53.574;9.976;2024-03-02T13:36:35;11.60;;;8.97;;
14748;SDS011;7466;53.574;9.976;2024-03-02T13:39:03;9.43;;;8.53;;
14748;SDS011;7466;53.574;9.976;2024-03-02T13:41:30;9.77;;;8.30;;
14748;SDS011;7466;53.574;9.976;2024-03-02T13:43:57;9.97;;;8.80;;
14748;SDS011;7466;53.574;9.976;2024-03-02T13:46:26;9.67;;;8.67;;
14748;SDS011;7466;53.574;9.976;2024-03-02T13:48:52;11.40;;;10.10;;
14748;SDS011;7466;53.574;9.976;2024-03-02T13:51:21;11.40;;;9.00;;
14748;SDS011;7466;53.574;9.976;2024-03-02T13:53:49;10.80;;;9.77;;
14748;SDS011;7466;53.574;9.976;2024-03-02T13:56:16;11.03;;;9.73;;
14748;SDS011;7466;53.574;9.976;2024-03-02T13:58:43;10.57;;;9.57;;
14748;SDS011;7466;53.574;9.976;2024-03-02T14:01:14;10.30;;;9.40;;
14748;SDS011;7466;53.574;9.976;2024-03-02T14:03:40;11.37;;;9.93;;
14748;SDS011;7466;53.574;9.976;2024-03-02T14:06:07;11.63;;;10.53;;
14748;SDS011;7466;53.574;9.976;2024-03-02T14:08:34;11.40;;;10.23;;
14748;SDS011;7466;53.574;9.976;2024-03-02T14:11:02;12.13;;;10.30;;
14748;SDS011;7466;53.574;9.976;2024-03-02T14:13:29;13.60;;;10.73;;
14748;SDS011;7466;53.574;9.976;2024-03-02T14:15:56;11.60;;;10.50;;
14748;SDS011;7466;53.574;9.976;2024-03-02T14:18:23;11.37;;;10.27;;
14748;SDS011;7466;53.574;9.976;2024-03-02T14:20:50;12.07;;;10.87;;
14748;SDS011;7466;53.574;9.976;2024-03-02T14:23:17;13.37;;;11.97;;
14748;SDS011;7466;53.574;9.976;2024-03-02T14:25:45;12.33;;;10.97;;
14748;SDS011;7466;53.574;9.976;2024-03-02T14:28:13;11.73;;;10.63;;
14748;SDS011;7466;53.574;9.976;2024-03-02T14:30:41;12.23;;;11.03;;
14748;SDS011;7466;53.574;9.976;2024-03-02T14:33:08;12.57;;;11.27;;
14748;SDS011;7466;53.574;9.976;2024-03-02T14:35:35;14.07;;;11.50;;
14748;SDS011;7466;53.574;9.976;2024-03-02T14:38:02;17.13;;;11.67;;
14748;SDS011;7466;53.574;9.976;2024-03-02T14:40:31;12.90;;;11.60;;
14748;SDS011;7466;53.574;9.976;2024-03-02T14:42:58;13.50;;;11.10;;
14748;SDS011;7466;53.574;9.976;2024-03-02T14:45:26;12.17;;;10.87;;
14748;SDS011;7466;53.574;9.976;2024-03-02T14:47:53;11.03;;;9.93;;